Time;durP1;ratioP1;P1;durP2;ratioP2;P2;SDS_P1;SDS_P2;PMS_P1;PMS_P2;Temp;Humidity;BMP_temperature;BMP_pressure;BME280_temperature;BME280_humidity;BME280_pressure;Samples;Min_cycle;Max_cycle;Signal;HPM_P1;HPM_P2
2021/05/08 00:01:58;;;;;;;;;;;6.20;92.60;;;;;;5052006;28;20420;-88
2021/05/08 00:04:23;;;;;;;;;;;6.20;92.60;;;;;;5051489;28;19905;-87
2021/05/08 00:06:48;;;;;;;;;;;6.20;92.60;;;;;;5053176;28;20160;-88
2021/05/08 00:09:14;;;;;;;;;;;6.20;92.60;;;;;;5052226;28;19908;-88
2021/05/08 00:11:40;;;;;;;;;;;6.20;92.60;;;;;;5052627;28;20373;-88
2021/05/08 00:14:06;;;;;;;;;;;6.20;92.60;;;;;;5051452;28;20005;-88
2021/05/08 00:16:32;;;;;;;;;;;6.30;92.40;;;;;;5052511;28;19905;-88
2021/05/08 00:18:57;;;;;;;;;;;6.20;92.70;;;;;;5051017;28;20286;-87
2021/05/08 00:21:23;;;;;;;;;;;6.10;92.60;;;;;;5053092;28;19904;-88
2021/05/08 00:23:48;;;;;;;;;;;6.20;92.50;;;;;;5054341;28;20322;-88
2021/05/08 00:26:14;;;;;;;;;;;6.10;92.70;;;;;;5053665;28;20357;-88
2021/05/08 00:28:39;;;;;;;;;;;6.10;92.70;;;;;;5054797;28;19911;-87
2021/05/08 00:31:05;;;;;;;;;;;6.10;92.80;;;;;;5052303;28;20293;-87
2021/05/08 00:33:30;;;;;;;;;;;6.10;92.70;;;;;;5052543;28;19908;-87
2021/05/08 00:35:56;;;;;;;;;;;6.00;92.70;;;;;;5051994;28;20246;-87
2021/05/08 00:38:21;;;;;;;;;;;6.00;92.90;;;;;;5052219;28;19932;-87
2021/05/08 00:40:47;;;;;;;;;;;6.00;93.00;;;;;;5051520;28;19912;-87
2021/05/08 00:43:14;;;;;;;;;;;6.10;92.90;;;;;;5052119;28;19905;-88
2021/05/08 00:45:40;;;;;;;;;;;6.00;93.00;;;;;;5052259;28;19904;-87
2021/05/08 00:48:12;;;;;;;;;;;6.00;93.00;;;;;;5053296;28;19974;-87
2021/05/08 00:50:41;;;;;;;;;;;6.10;93.00;;;;;;5051291;28;19904;-87
2021/05/08 00:53:07;;;;;;;;;;;6.20;93.10;;;;;;5051854;28;19905;-87
2021/05/08 00:55:36;;;;;;;;;;;6.20;93.00;;;;;;5053349;28;19905;-88
2021/05/08 00:58:03;;;;;;;;;;;6.30;92.80;;;;;;5051868;28;19970;-87
2021/05/08 01:00:29;;;;;;;;;;;6.40;92.80;;;;;;5053037;28;20400;-88
2021/05/08 01:02:55;;;;;;;;;;;6.30;92.80;;;;;;5053288;28;19912;-88
2021/05/08 01:05:20;;;;;;;;;;;6.40;92.70;;;;;;5052903;28;19924;-87
2021/05/08 01:07:46;;;;;;;;;;;6.40;92.70;;;;;;5050355;28;19912;-87
2021/05/08 01:10:13;;;;;;;;;;;6.30;92.70;;;;;;5066770;28;19936;-87
2021/05/08 01:12:39;;;;;;;;;;;6.30;92.70;;;;;;5051649;28;20282;-87
2021/05/08 01:15:05;;;;;;;;;;;6.30;92.60;;;;;;5053708;28;19909;-87
2021/05/08 01:17:31;;;;;;;;;;;6.20;92.70;;;;;;5053853;28;20062;-87
2021/05/08 01:19:56;;;;;;;;;;;6.30;92.90;;;;;;5054845;28;20000;-87
2021/05/08 01:22:22;;;;;;;;;;;6.50;92.70;;;;;;5053861;28;20358;-87
2021/05/08 01:24:47;;;;;;;;;;;6.60;92.40;;;;;;5070673;28;20388;-87
2021/05/08 01:27:13;;;;;;;;;;;6.50;92.50;;;;;;5054999;28;19904;-87
2021/05/08 01:29:39;;;;;;;;;;;6.50;92.60;;;;;;5053262;28;19912;-87
2021/05/08 01:32:04;;;;;;;;;;;6.50;92.60;;;;;;5053470;28;19916;-87
2021/05/08 01:34:30;;;;;;;;;;;6.50;93.00;;;;;;5053752;28;19905;-88
2021/05/08 01:36:55;;;;;;;;;;;6.50;92.60;;;;;;5053469;28;19905;-87
2021/05/08 01:39:21;;;;;;;;;;;6.40;92.80;;;;;;5053057;28;19958;-87
2021/05/08 01:41:47;;;;;;;;;;;6.30;92.70;;;;;;5054861;28;19912;-87
2021/05/08 01:44:12;;;;;;;;;;;6.30;92.80;;;;;;5053521;28;20351;-87
2021/05/08 01:46:38;;;;;;;;;;;6.20;92.90;;;;;;5053410;28;19948;-87
2021/05/08 01:49:04;;;;;;;;;;;6.20;93.20;;;;;;5054289;28;19905;-87
2021/05/08 01:51:30;;;;;;;;;;;6.30;93.00;;;;;;5054543;28;19904;-87
2021/05/08 01:53:55;;;;;;;;;;;6.30;93.00;;;;;;5054635;28;19905;-87
2021/05/08 01:56:21;;;;;;;;;;;6.30;93.10;;;;;;5053270;28;20361;-87
2021/05/08 01:58:46;;;;;;;;;;;6.30;93.20;;;;;;5052972;28;19908;-86
2021/05/08 02:01:12;;;;;;;;;;;6.30;93.20;;;;;;5053948;28;19958;-87
2021/05/08 02:03:37;;;;;;;;;;;6.30;93.10;;;;;;5054381;28;19911;-87
2021/05/08 02:06:03;;;;;;;;;;;6.10;93.20;;;;;;5054353;28;19908;-87
2021/05/08 02:08:29;;;;;;;;;;;6.20;93.20;;;;;;5052937;28;19931;-87
2021/05/08 02:10:54;;;;;;;;;;;6.10;93.30;;;;;;5053740;28;19956;-87
2021/05/08 02:13:20;;;;;;;;;;;6.10;93.30;;;;;;5052286;28;19988;-87
2021/05/08 02:15:45;;;;;;;;;;;6.10;93.50;;;;;;5053117;28;20354;-87
2021/05/08 02:18:11;;;;;;;;;;;6.10;93.30;;;;;;5052667;28;19915;-87
2021/05/08 02:20:40;;;;;;;;;;;6.00;93.40;;;;;;5053577;28;20427;-87
2021/05/08 02:23:07;;;;;;;;;;;6.00;93.50;;;;;;5054053;28;19948;-87
2021/05/08 02:25:33;;;;;;;;;;;5.90;93.30;;;;;;5051888;28;20300;-87
2021/05/08 02:27:58;;;;;;;;;;;5.90;93.30;;;;;;5052592;28;20007;-88
2021/05/08 02:30:25;;;;;;;;;;;5.80;93.40;;;;;;5052096;28;19962;-87
2021/05/08 02:32:51;;;;;;;;;;;5.90;93.50;;;;;;5052506;28;19924;-87
2021/05/08 02:35:17;;;;;;;;;;;5.90;93.40;;;;;;5052344;28;20380;-87
2021/05/08 02:37:43;;;;;;;;;;;5.80;93.50;;;;;;5053488;28;19916;-87
2021/05/08 02:40:10;;;;;;;;;;;5.80;93.30;;;;;;5051937;28;19962;-87
2021/05/08 02:42:36;;;;;;;;;;;5.80;93.30;;;;;;5053544;28;19991;-87
2021/05/08 02:45:03;;;;;;;;;;;5.80;93.60;;;;;;5052437;28;20258;-87
2021/05/08 02:47:28;;;;;;;;;;;5.70;93.60;;;;;;5069010;28;19905;-87
2021/05/08 02:49:54;;;;;;;;;;;5.70;93.50;;;;;;5053237;28;19916;-87
2021/05/08 02:52:20;;;;;;;;;;;5.50;93.70;;;;;;5052235;28;19995;-87
2021/05/08 02:54:46;;;;;;;;;;;5.60;93.60;;;;;;5052169;28;19951;-87
2021/05/08 02:57:11;;;;;;;;;;;5.50;93.80;;;;;;5053207;28;19955;-87
2021/05/08 02:59:37;;;;;;;;;;;5.50;93.80;;;;;;5052826;28;19904;-87
2021/05/08 03:02:03;;;;;;;;;;;5.50;93.70;;;;;;5051932;28;20027;-87
2021/05/08 03:04:29;;;;;;;;;;;5.50;93.90;;;;;;5053311;28;19962;-87
2021/05/08 03:06:54;;;;;;;;;;;5.60;93.80;;;;;;5051852;28;19905;-87
2021/05/08 03:09:20;;;;;;;;;;;5.60;93.70;;;;;;5051378;28;19959;-87
2021/05/08 03:11:45;;;;;;;;;;;5.70;93.70;;;;;;5053057;28;19991;-87
2021/05/08 03:14:13;;;;;;;;;;;5.80;93.70;;;;;;5051768;28;19955;-87
2021/05/08 03:16:39;;;;;;;;;;;5.90;93.70;;;;;;5053086;28;20375;-87
2021/05/08 03:19:05;;;;;;;;;;;6.00;93.40;;;;;;5052460;28;19912;-87
2021/05/08 03:21:32;;;;;;;;;;;6.30;92.90;;;;;;5068322;28;19999;-87
2021/05/08 03:23:58;;;;;;;;;;;6.30;92.80;;;;;;5053032;28;19905;-87
2021/05/08 03:26:23;;;;;;;;;;;6.40;92.60;;;;;;5056655;28;19904;-87
2021/05/08 03:28:49;;;;;;;;;;;6.40;92.70;;;;;;5056008;28;20388;-86
2021/05/08 03:31:14;;;;;;;;;;;6.40;92.60;;;;;;5054806;28;19967;-87
2021/05/08 03:33:40;;;;;;;;;;;6.50;92.60;;;;;;5055351;28;19999;-87
2021/05/08 03:36:05;;;;;;;;;;;6.60;92.30;;;;;;5052772;28;19905;-87
2021/05/08 03:38:31;;;;;;;;;;;6.60;91.80;;;;;;5051303;28;19908;-87
2021/05/08 03:40:56;;;;;;;;;;;6.70;91.70;;;;;;5052182;28;19959;-87
2021/05/08 03:43:22;;;;;;;;;;;6.70;91.50;;;;;;5051366;28;19909;-87
2021/05/08 03:45:50;;;;;;;;;;;6.80;91.60;;;;;;5051380;28;20273;-87
2021/05/08 03:48:16;;;;;;;;;;;6.80;91.70;;;;;;5051343;28;19904;-87
2021/05/08 03:50:42;;;;;;;;;;;6.80;91.70;;;;;;5050672;28;20368;-87
2021/05/08 03:53:07;;;;;;;;;;;6.80;91.80;;;;;;5051208;28;20277;-87
2021/05/08 03:55:34;;;;;;;;;;;6.80;91.40;;;;;;5052558;28;19987;-87
2021/05/08 03:58:00;;;;;;;;;;;6.90;91.30;;;;;;5050942;28;19908;-87
2021/05/08 04:00:26;;;;;;;;;;;6.90;91.20;;;;;;5050810;28;19908;-87
2021/05/08 04:02:52;;;;;;;;;;;6.90;91.20;;;;;;5051433;28;19999;-87
2021/05/08 04:05:17;;;;;;;;;;;7.00;91.10;;;;;;5053279;28;19911;-87
2021/05/08 04:07:43;;;;;;;;;;;7.00;90.90;;;;;;5051684;28;19911;-87
2021/05/08 04:10:09;;;;;;;;;;;7.10;90.70;;;;;;5051278;28;19959;-87
2021/05/08 04:12:34;;;;;;;;;;;7.00;90.70;;;;;;5051483;28;19958;-87
2021/05/08 04:15:00;;;;;;;;;;;7.00;90.70;;;;;;5051559;28;19954;-87
2021/05/08 04:17:25;;;;;;;;;;;7.00;90.70;;;;;;5052848;28;19909;-88
2021/05/08 04:19:51;;;;;;;;;;;7.00;90.60;;;;;;5052271;28;19905;-87
2021/05/08 04:22:16;;;;;;;;;;;7.00;90.50;;;;;;5052639;28;19909;-87
2021/05/08 04:24:42;;;;;;;;;;;7.00;90.70;;;;;;5051546;28;19905;-87
2021/05/08 04:27:07;;;;;;;;;;;7.00;90.70;;;;;;5051348;28;19912;-87
2021/05/08 04:29:33;;;;;;;;;;;6.90;90.80;;;;;;5050794;28;19974;-87
2021/05/08 04:31:58;;;;;;;;;;;6.90;90.80;;;;;;5052293;28;19916;-87
2021/05/08 04:34:24;;;;;;;;;;;6.90;90.80;;;;;;5051313;28;20365;-88
2021/05/08 04:36:49;;;;;;;;;;;6.70;90.90;;;;;;5052488;28;19908;-87
2021/05/08 04:39:15;;;;;;;;;;;6.70;90.90;;;;;;5050698;28;20351;-87
2021/05/08 04:41:40;;;;;;;;;;;6.60;91.10;;;;;;5051608;28;19911;-87
2021/05/08 04:44:06;;;;;;;;;;;6.70;91.40;;;;;;5051180;28;19911;-88
2021/05/08 04:46:32;;;;;;;;;;;6.60;91.50;;;;;;5051302;28;20016;-87
2021/05/08 04:48:57;;;;;;;;;;;6.80;91.10;;;;;;5052636;28;19905;-87
2021/05/08 04:51:23;;;;;;;;;;;6.80;91.10;;;;;;5056446;28;19959;-86
2021/05/08 04:53:48;;;;;;;;;;;6.80;91.10;;;;;;5055381;28;19904;-88
2021/05/08 04:56:15;;;;;;;;;;;6.80;90.90;;;;;;5056255;28;19912;-88
2021/05/08 04:58:41;;;;;;;;;;;6.80;90.80;;;;;;5056066;28;19958;-88
2021/05/08 05:01:07;;;;;;;;;;;6.90;90.60;;;;;;5054453;28;19908;-89
2021/05/08 05:03:32;;;;;;;;;;;7.00;90.20;;;;;;5055190;28;19904;-87
2021/05/08 05:05:58;;;;;;;;;;;7.00;90.10;;;;;;5055080;28;19996;-87
2021/05/08 05:08:23;;;;;;;;;;;7.10;90.20;;;;;;5056406;28;19904;-87
2021/05/08 05:10:52;;;;;;;;;;;7.00;90.10;;;;;;5054521;28;20350;-87
2021/05/08 05:13:21;;;;;;;;;;;7.10;89.80;;;;;;5056658;28;19908;-87
2021/05/08 05:15:47;;;;;;;;;;;7.20;90.00;;;;;;5055658;28;19912;-86
2021/05/08 05:18:13;;;;;;;;;;;7.20;89.70;;;;;;5058459;28;19909;-87
2021/05/08 05:20:39;;;;;;;;;;;7.30;89.40;;;;;;5066506;28;19951;-87
2021/05/08 05:23:05;;;;;;;;;;;7.40;89.30;;;;;;5055257;28;20436;-87
2021/05/08 05:25:30;;;;;;;;;;;7.30;89.10;;;;;;5054543;28;19995;-87
2021/05/08 05:27:56;;;;;;;;;;;7.40;89.30;;;;;;5055478;28;19911;-87
2021/05/08 05:30:22;;;;;;;;;;;7.40;89.20;;;;;;5053687;28;19904;-87
2021/05/08 05:32:48;;;;;;;;;;;7.40;89.60;;;;;;5053879;28;19919;-87
2021/05/08 05:35:13;;;;;;;;;;;7.50;89.10;;;;;;5055373;28;19908;-87
2021/05/08 05:37:39;;;;;;;;;;;7.60;88.80;;;;;;5053844;28;19909;-87
2021/05/08 05:40:05;;;;;;;;;;;7.70;89.30;;;;;;5053225;28;19944;-87
2021/05/08 05:42:30;;;;;;;;;;;7.60;88.30;;;;;;5055053;28;20365;-87
2021/05/08 05:44:56;;;;;;;;;;;7.60;87.80;;;;;;5054890;28;19999;-87
2021/05/08 05:47:21;;;;;;;;;;;7.70;87.70;;;;;;5054965;28;19904;-87
2021/05/08 05:49:51;;;;;;;;;;;7.80;87.40;;;;;;5053148;28;19912;-87
2021/05/08 05:52:17;;;;;;;;;;;7.80;87.50;;;;;;5054906;28;19904;-86
2021/05/08 05:54:44;;;;;;;;;;;7.90;86.90;;;;;;5054798;28;20063;-87
2021/05/08 05:57:27;;;;;;;;;;;7.90;87.20;;;;;;5052984;28;19911;-85
2021/05/08 05:59:52;;;;;;;;;;;7.90;87.40;;;;;;5053145;28;20358;-87
2021/05/08 06:02:18;;;;;;;;;;;7.90;86.90;;;;;;5053183;28;19911;-87
2021/05/08 06:04:43;;;;;;;;;;;7.90;86.60;;;;;;5054640;28;19920;-87
2021/05/08 06:07:09;;;;;;;;;;;8.00;86.40;;;;;;5053208;28;20310;-87
2021/05/08 06:09:34;;;;;;;;;;;8.10;85.90;;;;;;5053976;28;19905;-87
2021/05/08 06:12:00;;;;;;;;;;;8.10;85.30;;;;;;5054201;28;19955;-87
2021/05/08 06:14:28;;;;;;;;;;;8.20;85.10;;;;;;5054349;28;19905;-87
2021/05/08 06:16:57;;;;;;;;;;;8.20;85.10;;;;;;5054134;28;19905;-87
2021/05/08 06:19:23;;;;;;;;;;;8.30;84.20;;;;;;5052329;28;19905;-87
2021/05/08 06:21:49;;;;;;;;;;;8.40;84.00;;;;;;5052881;28;19955;-87
2021/05/08 06:24:14;;;;;;;;;;;8.40;83.30;;;;;;5052806;28;19951;-87
2021/05/08 06:26:42;;;;;;;;;;;8.50;83.40;;;;;;5054427;28;20440;-88
2021/05/08 06:29:08;;;;;;;;;;;8.60;83.40;;;;;;5052297;28;19919;-88
2021/05/08 06:31:33;;;;;;;;;;;8.60;81.90;;;;;;5052550;28;19917;-88
2021/05/08 06:33:59;;;;;;;;;;;8.60;81.90;;;;;;5053997;28;19950;-88
2021/05/08 06:36:25;;;;;;;;;;;8.80;81.50;;;;;;5053892;28;20007;-88
2021/05/08 06:38:50;;;;;;;;;;;8.80;80.10;;;;;;5053543;28;19915;-88
2021/05/08 06:41:16;;;;;;;;;;;8.90;80.60;;;;;;5052204;28;19905;-88
2021/05/08 06:43:41;;;;;;;;;;;8.90;79.80;;;;;;5053761;28;19905;-88
2021/05/08 06:46:10;;;;;;;;;;;9.00;79.10;;;;;;5052402;28;19905;-87
2021/05/08 06:48:35;;;;;;;;;;;9.10;78.90;;;;;;5053656;28;20372;-88
2021/05/08 06:51:02;;;;;;;;;;;9.10;79.20;;;;;;5068643;28;19983;-88
2021/05/08 06:53:27;;;;;;;;;;;9.20;79.00;;;;;;5052185;28;20380;-85
2021/05/08 06:55:53;;;;;;;;;;;9.20;78.70;;;;;;5052220;28;19908;-88
2021/05/08 06:58:18;;;;;;;;;;;9.30;78.10;;;;;;5070269;28;19916;-88
2021/05/08 07:00:44;;;;;;;;;;;9.30;78.30;;;;;;5053217;28;19909;-88
2021/05/08 07:03:09;;;;;;;;;;;9.40;77.50;;;;;;5053342;28;19905;-88
2021/05/08 07:05:35;;;;;;;;;;;9.40;77.70;;;;;;5052149;28;19950;-87
2021/05/08 07:08:01;;;;;;;;;;;9.40;76.70;;;;;;5053892;28;19904;-88
2021/05/08 07:10:27;;;;;;;;;;;9.40;76.90;;;;;;5051574;28;19909;-88
2021/05/08 07:12:53;;;;;;;;;;;9.50;76.90;;;;;;5051663;28;20467;-88
2021/05/08 07:15:18;;;;;;;;;;;9.60;77.00;;;;;;5052222;28;19905;-88
2021/05/08 07:17:44;;;;;;;;;;;9.60;76.30;;;;;;5052947;28;19967;-88
2021/05/08 07:20:09;;;;;;;;;;;9.60;75.80;;;;;;5051358;28;19905;-88
2021/05/08 07:22:35;;;;;;;;;;;9.60;76.20;;;;;;5054749;28;19911;-88
2021/05/08 07:25:00;;;;;;;;;;;9.70;75.50;;;;;;5052948;28;19910;-88
2021/05/08 07:27:26;;;;;;;;;;;9.70;75.60;;;;;;5051552;28;19905;-88
2021/05/08 07:29:51;;;;;;;;;;;9.70;76.10;;;;;;5051023;28;19944;-88
2021/05/08 07:32:17;;;;;;;;;;;9.80;76.30;;;;;;5051609;28;19912;-88
2021/05/08 07:34:42;;;;;;;;;;;9.80;75.70;;;;;;5051534;28;19904;-88
2021/05/08 07:37:08;;;;;;;;;;;9.80;76.30;;;;;;5052235;28;20289;-88
2021/05/08 07:39:33;;;;;;;;;;;9.80;75.80;;;;;;5052443;28;20113;-88
2021/05/08 07:41:59;;;;;;;;;;;9.80;76.10;;;;;;5051479;28;20265;-88
2021/05/08 07:44:27;;;;;;;;;;;9.90;76.00;;;;;;5053615;28;19909;-88
2021/05/08 07:46:52;;;;;;;;;;;9.90;75.20;;;;;;5052464;28;19904;-88
2021/05/08 07:49:18;;;;;;;;;;;9.90;75.20;;;;;;5050776;28;19911;-88
2021/05/08 07:51:44;;;;;;;;;;;9.90;75.10;;;;;;5051245;28;20417;-88
2021/05/08 07:54:10;;;;;;;;;;;9.90;75.20;;;;;;5052324;28;20282;-88
2021/05/08 07:56:37;;;;;;;;;;;9.90;74.60;;;;;;5052497;28;19911;-88
2021/05/08 07:59:03;;;;;;;;;;;10.00;74.90;;;;;;5050827;28;19915;-88
2021/05/08 08:01:28;;;;;;;;;;;10.00;75.40;;;;;;5052285;28;19905;-88
2021/05/08 08:03:54;;;;;;;;;;;10.10;74.80;;;;;;5051125;28;19963;-88
2021/05/08 08:06:19;;;;;;;;;;;10.10;74.60;;;;;;5052299;28;19908;-88
2021/05/08 08:08:45;;;;;;;;;;;10.10;74.90;;;;;;5050873;28;19905;-87
2021/05/08 08:11:10;;;;;;;;;;;10.20;73.60;;;;;;5050709;28;19904;-88
2021/05/08 08:13:36;;;;;;;;;;;10.20;74.00;;;;;;5050898;28;19940;-88
2021/05/08 08:16:01;;;;;;;;;;;10.20;73.80;;;;;;5052309;28;20013;-88
2021/05/08 08:18:27;;;;;;;;;;;10.30;73.70;;;;;;5050805;28;19917;-88
2021/05/08 08:20:53;;;;;;;;;;;10.30;73.90;;;;;;5050434;28;19905;-89
2021/05/08 08:23:19;;;;;;;;;;;10.40;73.60;;;;;;5051695;28;19911;-88
2021/05/08 08:25:45;;;;;;;;;;;10.40;73.70;;;;;;5056377;28;19948;-88
2021/05/08 08:28:10;;;;;;;;;;;10.50;73.50;;;;;;5056214;28;19996;-87
2021/05/08 08:30:36;;;;;;;;;;;10.50;73.70;;;;;;5054495;28;19911;-88
2021/05/08 08:33:02;;;;;;;;;;;10.50;73.30;;;;;;5054493;28;19912;-88
2021/05/08 08:35:27;;;;;;;;;;;10.60;73.50;;;;;;5056255;28;19974;-88
2021/05/08 08:37:53;;;;;;;;;;;10.60;73.90;;;;;;5054873;28;19930;-88
2021/05/08 08:40:20;;;;;;;;;;;10.60;74.00;;;;;;5054173;28;19991;-88
2021/05/08 08:42:46;;;;;;;;;;;10.70;73.60;;;;;;5054775;28;20389;-88
2021/05/08 08:45:12;;;;;;;;;;;10.70;73.50;;;;;;5055979;28;19911;-88
2021/05/08 08:47:37;;;;;;;;;;;10.80;73.20;;;;;;5055916;28;19987;-88
2021/05/08 08:50:03;;;;;;;;;;;10.80;73.60;;;;;;5053946;28;19904;-88
2021/05/08 08:52:29;;;;;;;;;;;10.80;74.40;;;;;;5054328;28;19909;-88
2021/05/08 08:54:55;;;;;;;;;;;10.90;73.40;;;;;;5055709;28;20337;-88
2021/05/08 08:57:26;;;;;;;;;;;10.90;72.40;;;;;;5055516;28;19909;-88
2021/05/08 08:59:53;;;;;;;;;;;10.90;72.90;;;;;;5055166;28;19912;-88
2021/05/08 09:02:19;;;;;;;;;;;10.90;73.10;;;;;;5055632;28;19905;-88
2021/05/08 09:04:50;;;;;;;;;;;10.90;73.40;;;;;;5055475;28;19913;-88
2021/05/08 09:07:16;;;;;;;;;;;11.00;73.40;;;;;;5054435;28;19905;-87
2021/05/08 09:09:45;;;;;;;;;;;11.00;74.10;;;;;;5053760;28;20288;-88
2021/05/08 09:12:17;;;;;;;;;;;11.00;72.60;;;;;;5054199;28;20372;-88
2021/05/08 09:14:47;;;;;;;;;;;11.10;72.50;;;;;;5054057;28;19904;-88
2021/05/08 09:17:16;;;;;;;;;;;11.10;72.90;;;;;;5054127;28;19984;-88
2021/05/08 09:19:43;;;;;;;;;;;11.10;73.20;;;;;;5055367;28;20000;-88
2021/05/08 09:22:22;;;;;;;;;;;11.20;72.90;;;;;;5054114;28;19908;-88
2021/05/08 09:24:55;;;;;;;;;;;11.20;71.90;;;;;;5053985;28;20328;-88
2021/05/08 09:27:32;;;;;;;;;;;11.30;71.30;;;;;;5054157;28;19940;-88
2021/05/08 09:30:05;;;;;;;;;;;11.40;71.30;;;;;;5053390;28;19905;-88
2021/05/08 09:32:41;;;;;;;;;;;11.50;69.70;;;;;;5055129;28;19927;-88
2021/05/08 09:35:08;;;;;;;;;;;11.50;69.60;;;;;;5053813;28;20377;-88
2021/05/08 09:37:34;;;;;;;;;;;11.60;70.20;;;;;;5055193;28;19962;-88
2021/05/08 09:40:16;;;;;;;;;;;11.60;69.80;;;;;;5053492;28;20258;-88
2021/05/08 09:42:43;;;;;;;;;;;11.70;68.40;;;;;;5057658;28;20349;-88
2021/05/08 09:45:09;;;;;;;;;;;11.80;68.90;;;;;;5057723;28;20373;-88
2021/05/08 09:47:34;;;;;;;;;;;11.90;68.20;;;;;;5059867;28;19916;-88
2021/05/08 09:50:00;;;;;;;;;;;12.00;67.70;;;;;;5057464;28;20353;-88
2021/05/08 09:52:25;;;;;;;;;;;12.00;67.40;;;;;;5055005;28;19905;-88
2021/05/08 09:55:03;;;;;;;;;;;12.00;67.70;;;;;;5054829;28;19904;-88
2021/05/08 09:57:28;;;;;;;;;;;12.00;67.70;;;;;;5054847;28;19975;-88
2021/05/08 09:59:54;;;;;;;;;;;12.00;68.00;;;;;;5054430;28;20369;-88
2021/05/08 10:02:20;;;;;;;;;;;12.10;68.60;;;;;;5053357;28;19905;-88
2021/05/08 10:04:48;;;;;;;;;;;12.10;68.10;;;;;;5053621;28;19912;-88
2021/05/08 10:07:13;;;;;;;;;;;12.30;66.20;;;;;;5053825;28;19905;-88
2021/05/08 10:09:40;;;;;;;;;;;12.30;67.00;;;;;;5054433;28;19914;-88
2021/05/08 10:12:07;;;;;;;;;;;12.50;66.20;;;;;;5071273;28;19911;-88
2021/05/08 10:14:37;;;;;;;;;;;12.50;66.30;;;;;;5054153;28;19905;-88
2021/05/08 10:17:02;;;;;;;;;;;12.50;67.00;;;;;;5053947;28;19904;-88
2021/05/08 10:19:30;;;;;;;;;;;12.60;66.50;;;;;;5052695;28;19904;-88
2021/05/08 10:21:56;;;;;;;;;;;12.70;66.50;;;;;;5054302;28;19911;-88
2021/05/08 10:24:24;;;;;;;;;;;12.70;66.30;;;;;;5055274;28;19995;-88
2021/05/08 10:26:51;;;;;;;;;;;12.60;65.50;;;;;;5055298;28;19904;-88
2021/05/08 10:29:19;;;;;;;;;;;12.70;65.80;;;;;;5053255;28;19916;-88
2021/05/08 10:31:44;;;;;;;;;;;12.70;66.00;;;;;;5053308;28;19923;-88
2021/05/08 10:34:10;;;;;;;;;;;12.80;65.30;;;;;;5069969;28;19905;-88
2021/05/08 10:36:48;;;;;;;;;;;12.80;64.60;;;;;;5052575;28;20171;-88
2021/05/08 10:39:14;;;;;;;;;;;12.80;64.60;;;;;;5053862;28;20361;-88
2021/05/08 10:41:52;;;;;;;;;;;12.90;64.90;;;;;;5054324;28;19904;-86
2021/05/08 10:44:53;;;;;;;;;;;12.90;65.00;;;;;;5054245;28;20368;-87
2021/05/08 10:47:18;;;;;;;;;;;13.00;64.70;;;;;;5030809;28;19905;-87
2021/05/08 10:50:04;;;;;;;;;;;13.00;65.30;;;;;;5048508;28;20362;-87
2021/05/08 10:52:49;;;;;;;;;;;13.10;65.80;;;;;;5052303;28;19904;-88
2021/05/08 10:55:21;;;;;;;;;;;13.10;65.50;;;;;;5052143;28;19909;-88
2021/05/08 10:58:07;;;;;;;;;;;13.10;64.00;;;;;;5052179;28;19908;-88
2021/05/08 11:00:43;;;;;;;;;;;13.10;64.90;;;;;;5051709;28;19956;-88
2021/05/08 11:03:08;;;;;;;;;;;13.10;63.80;;;;;;5068758;28;19915;-88
2021/05/08 11:05:39;;;;;;;;;;;13.20;62.80;;;;;;5053176;28;19909;-88
2021/05/08 11:08:23;;;;;;;;;;;13.20;63.00;;;;;;5053334;28;19959;-88
2021/05/08 11:10:56;;;;;;;;;;;13.30;62.30;;;;;;5051227;28;19912;-88
2021/05/08 11:13:24;;;;;;;;;;;13.30;62.40;;;;;;5051811;28;19905;-88
2021/05/08 11:15:50;;;;;;;;;;;13.30;63.10;;;;;;5053094;28;19959;-88
2021/05/08 11:18:31;;;;;;;;;;;13.30;62.50;;;;;;5051523;28;19912;-86
2021/05/08 11:21:17;;;;;;;;;;;13.30;62.90;;;;;;5051179;28;19920;-87
2021/05/08 11:23:46;;;;;;;;;;;13.40;61.60;;;;;;5044498;28;19905;-88
2021/05/08 11:26:30;;;;;;;;;;;13.40;62.40;;;;;;5051740;28;20350;-88
2021/05/08 11:29:19;;;;;;;;;;;13.50;62.10;;;;;;5051532;28;20441;-88
2021/05/08 11:31:46;;;;;;;;;;;13.50;62.50;;;;;;5052854;28;20377;-88
2021/05/08 11:34:25;;;;;;;;;;;13.50;61.30;;;;;;5051498;28;20326;-88
2021/05/08 11:36:50;;;;;;;;;;;13.60;61.30;;;;;;5052770;28;19904;-88
2021/05/08 11:39:20;;;;;;;;;;;13.60;61.30;;;;;;5051009;28;20384;-87
2021/05/08 11:41:47;;;;;;;;;;;13.60;60.10;;;;;;5051464;28;20384;-88
2021/05/08 11:44:20;;;;;;;;;;;13.70;59.00;;;;;;5052764;28;20387;-87
2021/05/08 11:46:53;;;;;;;;;;;13.70;59.60;;;;;;5052567;28;19908;-87
2021/05/08 11:49:44;;;;;;;;;;;13.60;60.50;;;;;;5051854;28;20246;-87
2021/05/08 11:52:10;;;;;;;;;;;13.70;60.60;;;;;;5050994;28;20373;-87
2021/05/08 11:54:39;;;;;;;;;;;13.70;61.20;;;;;;5052714;28;19912;-87
2021/05/08 11:57:17;;;;;;;;;;;13.60;61.50;;;;;;5052159;28;19948;-87
2021/05/08 11:59:42;;;;;;;;;;;13.60;60.70;;;;;;5051376;28;19904;-87
2021/05/08 12:02:18;;;;;;;;;;;13.70;59.90;;;;;;5052352;28;19915;-87
2021/05/08 12:04:48;;;;;;;;;;;13.60;60.40;;;;;;5052428;28;19966;-87
2021/05/08 12:07:16;;;;;;;;;;;13.60;60.10;;;;;;5051028;28;19905;-87
2021/05/08 12:09:42;;;;;;;;;;;13.60;62.10;;;;;;5051794;28;19995;-87
2021/05/08 12:12:07;;;;;;;;;;;13.60;63.10;;;;;;5051128;28;20030;-86
2021/05/08 12:14:43;;;;;;;;;;;13.50;65.10;;;;;;5052101;28;19905;-87
2021/05/08 12:17:09;;;;;;;;;;;13.40;67.40;;;;;;5050724;28;19911;-87
2021/05/08 12:19:36;;;;;;;;;;;13.30;70.70;;;;;;5051656;28;19912;-87
2021/05/08 12:22:01;;;;;;;;;;;13.20;72.50;;;;;;5050862;28;19909;-87
2021/05/08 12:24:27;;;;;;;;;;;13.20;72.10;;;;;;5052162;28;19911;-86
2021/05/08 12:26:53;;;;;;;;;;;13.10;74.30;;;;;;5051243;28;19904;-87
2021/05/08 12:29:18;;;;;;;;;;;13.10;74.30;;;;;;5051904;28;19912;-88
2021/05/08 12:31:45;;;;;;;;;;;13.00;76.50;;;;;;5052072;28;19943;-87
2021/05/08 12:34:15;;;;;;;;;;;13.00;77.90;;;;;;5051034;28;19912;-88
2021/05/08 12:36:41;;;;;;;;;;;12.90;77.60;;;;;;5050931;28;20014;-88
2021/05/08 12:39:16;;;;;;;;;;;12.80;78.90;;;;;;5051596;28;19917;-87
2021/05/08 12:41:49;;;;;;;;;;;12.80;80.50;;;;;;5052118;28;20003;-87
2021/05/08 12:44:14;;;;;;;;;;;12.70;82.20;;;;;;5050922;28;19912;-87
2021/05/08 12:46:54;;;;;;;;;;;12.70;83.70;;;;;;5052226;28;20053;-87
2021/05/08 12:49:20;;;;;;;;;;;12.60;85.00;;;;;;5051840;28;20380;-87
2021/05/08 12:51:46;;;;;;;;;;;12.60;86.90;;;;;;5052202;28;20361;-87
2021/05/08 12:54:31;;;;;;;;;;;12.50;87.60;;;;;;5050992;28;20288;-88
2021/05/08 12:57:10;;;;;;;;;;;12.40;87.30;;;;;;5052145;28;19959;-87
2021/05/08 12:59:36;;;;;;;;;;;12.40;88.50;;;;;;5050252;28;19959;-88
2021/05/08 13:02:18;;;;;;;;;;;12.30;89.80;;;;;;5051888;28;20320;-88
2021/05/08 13:04:45;;;;;;;;;;;12.30;90.20;;;;;;5052567;28;19958;-87
2021/05/08 13:07:32;;;;;;;;;;;12.20;89.30;;;;;;5051660;28;20322;-88
2021/05/08 13:10:16;;;;;;;;;;;12.20;90.50;;;;;;5053336;28;19927;-87
2021/05/08 13:12:45;;;;;;;;;;;12.20;90.50;;;;;;5054976;28;19995;-88
2021/05/08 13:15:21;;;;;;;;;;;12.20;90.60;;;;;;5058322;28;19905;-86
2021/05/08 13:17:48;;;;;;;;;;;12.20;90.70;;;;;;5055294;28;19970;-87
2021/05/08 13:20:15;;;;;;;;;;;12.20;90.40;;;;;;5053458;28;20250;-87
2021/05/08 13:22:42;;;;;;;;;;;12.20;90.50;;;;;;5055174;28;20334;-87
2021/05/08 13:25:09;;;;;;;;;;;12.20;90.70;;;;;;5053892;28;19909;-86
2021/05/08 13:27:34;;;;;;;;;;;12.20;90.70;;;;;;5055069;28;20037;-87
2021/05/08 13:30:00;;;;;;;;;;;12.20;90.70;;;;;;5036700;28;19948;-87
2021/05/08 13:32:26;;;;;;;;;;;12.20;89.30;;;;;;5054574;28;19913;-87
2021/05/08 13:34:51;;;;;;;;;;;12.20;89.30;;;;;;5055784;28;19952;-87
2021/05/08 13:37:17;;;;;;;;;;;12.20;90.30;;;;;;5054385;28;19905;-87
2021/05/08 13:39:42;;;;;;;;;;;12.30;90.10;;;;;;5054389;28;19905;-87
2021/05/08 13:42:08;;;;;;;;;;;12.40;89.90;;;;;;5054745;28;19958;-87
2021/05/08 13:44:33;;;;;;;;;;;12.40;89.20;;;;;;5054639;28;20047;-87
2021/05/08 13:46:59;;;;;;;;;;;12.40;88.00;;;;;;5054593;28;19909;-86
2021/05/08 13:49:24;;;;;;;;;;;12.50;88.20;;;;;;5052877;28;19911;-87
2021/05/08 13:51:50;;;;;;;;;;;12.50;86.20;;;;;;5053420;28;19905;-88
2021/05/08 13:54:16;;;;;;;;;;;12.50;85.70;;;;;;5054650;28;19912;-87
2021/05/08 13:56:41;;;;;;;;;;;12.50;83.50;;;;;;5053203;28;20428;-87
2021/05/08 13:59:07;;;;;;;;;;;12.50;84.30;;;;;;5052629;28;19935;-87
2021/05/08 14:01:32;;;;;;;;;;;12.50;85.00;;;;;;5054354;28;19923;-87
2021/05/08 14:03:57;;;;;;;;;;;12.50;83.80;;;;;;5054728;28;19959;-87
2021/05/08 14:06:23;;;;;;;;;;;12.60;83.90;;;;;;5069774;28;20377;-87
2021/05/08 14:08:48;;;;;;;;;;;12.60;82.10;;;;;;5052791;28;19944;-86
2021/05/08 14:11:14;;;;;;;;;;;12.60;83.60;;;;;;5053895;28;19912;-87
2021/05/08 14:13:39;;;;;;;;;;;12.70;83.00;;;;;;5053001;28;20358;-87
2021/05/08 14:16:05;;;;;;;;;;;12.70;82.50;;;;;;5052899;28;19904;-87
2021/05/08 14:18:30;;;;;;;;;;;12.80;80.60;;;;;;5052812;28;19909;-87
2021/05/08 14:20:56;;;;;;;;;;;12.80;81.40;;;;;;5052700;28;19905;-87
2021/05/08 14:23:22;;;;;;;;;;;12.90;80.20;;;;;;5052896;28;20003;-86
2021/05/08 14:25:48;;;;;;;;;;;13.00;79.70;;;;;;5053272;28;19967;-86